Time;durP1;ratioP1;P1;durP2;ratioP2;P2;SDS_P1;SDS_P2;PMS_P1;PMS_P2;Temp;Humidity;BMP_temperature;BMP_pressure;BME280_temperature;BME280_humidity;BME280_pressure;Samples;Min_cycle;Max_cycle;Signal;HPM_P1;HPM_P2
2021/11/22 00:09:21;;;;;;;16.98;8.63;;;;;;;4.79;96.46;100300.16;20899228;28;20464;-74
2021/11/22 00:19:22;;;;;;;13.05;7.55;;;;;;;4.71;97.17;100304.41;20913075;28;20057;-73
2021/11/22 00:29:24;;;;;;;15.10;7.85;;;;;;;4.66;98.25;100313.91;20915508;28;20056;-73
2021/11/22 00:39:26;;;;;;;14.90;8.18;;;;;;;4.76;97.61;100323.47;20913720;28;20103;-73
2021/11/22 00:49:27;;;;;;;15.90;8.23;;;;;;;4.82;98.19;100326.09;20913070;28;20045;-73
2021/11/22 00:59:29;;;;;;;17.23;8.98;;;;;;;4.79;98.25;100338.16;20913241;28;20052;-72
2021/11/22 01:09:31;;;;;;;20.80;10.25;;;;;;;4.91;98.39;100337.41;20912213;28;20111;-74
2021/11/22 01:19:33;;;;;;;15.73;8.77;;;;;;;4.88;98.59;100346.88;20911037;28;20057;-73
2021/11/22 01:29:35;;;;;;;18.15;9.40;;;;;;;4.91;98.96;100358.16;20909495;28;20114;-74
2021/11/22 01:39:37;;;;;;;23.45;11.25;;;;;;;4.96;98.83;100361.63;20908758;28;20052;-74
2021/11/22 01:49:38;;;;;;;24.73;12.05;;;;;;;4.95;99.11;100370.28;20909588;28;20049;-74
2021/11/22 01:59:40;;;;;;;27.45;12.50;;;;;;;5.00;98.61;100374.66;20907625;28;20094;-73
2021/11/22 02:09:41;;;;;;;24.52;11.75;;;;;;;5.04;98.00;100385.91;20907238;28;20056;-73
2021/11/22 02:19:55;;;;;;;24.33;12.23;;;;;;;5.03;97.71;100378.97;20906936;28;20056;-73
2021/11/22 02:29:58;;;;;;;26.13;12.63;;;;;;;4.94;97.80;100394.50;20930190;28;20098;-74
2021/11/22 02:39:59;;;;;;;26.73;12.05;;;;;;;4.88;98.33;100400.50;20987545;28;20552;-75
2021/11/22 02:50:01;;;;;;;23.77;11.82;;;;;;;4.85;99.12;100411.72;20986882;28;20049;-74
2021/11/22 03:00:07;;;;;;;25.20;12.25;;;;;;;5.03;97.75;100421.38;20986387;28;20048;-76
2021/11/22 03:10:12;;;;;;;26.30;12.50;;;;;;;5.01;97.76;100422.22;20984895;28;20094;-75
2021/11/22 03:20:17;;;;;;;24.23;11.43;;;;;;;5.04;97.19;100435.22;20982364;28;20498;-74
2021/11/22 03:30:19;;;;;;;25.60;12.43;;;;;;;5.05;97.56;100431.75;20982953;28;20094;-75
2021/11/22 03:40:21;;;;;;;29.27;11.50;;;;;;;5.05;97.71;100442.16;20984445;28;20044;-74
2021/11/22 03:50:22;;;;;;;31.88;12.98;;;;;;;5.09;98.14;100446.50;20983078;28;20451;-75
2021/11/22 04:00:24;;;;;;;34.72;14.30;;;;;;;5.02;98.65;100449.88;20982324;28;20049;-75
2021/11/22 04:10:28;;;;;;;39.90;15.30;;;;;;;5.07;98.79;100454.25;20983245;28;20083;-75
2021/11/22 04:20:30;;;;;;;42.75;16.17;;;;;;;5.09;99.42;100468.13;20982382;28;20527;-75
2021/11/22 04:30:32;;;;;;;44.38;17.80;;;;;;;5.03;99.54;100475.88;20981461;28;20036;-75
2021/11/22 04:40:34;;;;;;;50.63;19.52;;;;;;;5.13;99.20;100493.25;20982237;28;20044;-74
2021/11/22 04:50:35;;;;;;;51.10;19.70;;;;;;;5.12;98.75;100501.88;20981015;28;20053;-75
2021/11/22 05:00:37;;;;;;;53.35;20.40;;;;;;;5.15;99.50;100514.88;20981802;28;20090;-74
2021/11/22 05:10:42;;;;;;;54.47;20.48;;;;;;;5.26;98.93;100520.16;20994614;28;20110;-74
2021/11/22 05:20:44;;;;;;;;;;;;;;;5.30;99.29;100519.31;20994679;28;20091;-74
2021/11/22 05:30:45;;;;;;;48.20;20.27;;;;;;;5.43;99.62;100537.59;20993560;28;19970;-76
2021/11/22 05:40:47;;;;;;;54.88;22.77;;;;;;;5.62;99.79;100542.94;20996074;28;20045;-79
2021/11/22 05:50:54;;;;;;;52.67;21.00;;;;;;;5.59;100.00;100553.28;20994936;28;20057;-76
2021/11/22 06:00:55;;;;;;;49.63;22.13;;;;;;;5.57;100.00;100568.00;20991114;28;20130;-76
2021/11/22 06:10:57;;;;;;;42.08;19.70;;;;;;;5.58;100.00;100579.25;20995022;28;20066;-79
2021/11/22 06:20:58;;;;;;;39.50;18.85;;;;;;;5.50;100.00;100599.97;20997533;28;20048;-77
2021/11/22 06:31:00;;;;;;;41.55;18.17;;;;;;;5.43;100.00;100607.72;20990006;28;20052;-78
2021/11/22 06:41:01;;;;;;;38.88;16.45;;;;;;;5.39;99.42;100628.44;20987141;28;20162;-76
2021/11/22 06:51:04;;;;;;;34.97;16.85;;;;;;;5.32;100.00;100652.63;20986434;28;20093;-74
2021/11/22 07:01:05;;;;;;;33.78;14.70;;;;;;;5.27;100.00;100674.19;20986821;28;20048;-80
2021/11/22 07:11:08;;;;;;;41.90;14.98;;;;;;;5.21;99.88;100677.59;20985713;28;20055;-74
2021/11/22 07:21:09;;;;;;;31.33;13.40;;;;;;;5.17;100.00;100699.19;20984943;28;20053;-75
2021/11/22 07:31:11;;;;;;;31.95;13.68;;;;;;;5.14;99.95;100714.72;20983674;28;20127;-76
2021/11/22 07:41:12;;;;;;;30.67;12.18;;;;;;;5.10;99.77;100729.41;20984248;28;20048;-73
2021/11/22 07:51:14;;;;;;;24.42;12.45;;;;;;;5.11;99.90;100748.44;20983982;28;20460;-73
2021/11/22 08:01:15;;;;;;;24.30;10.85;;;;;;;5.16;99.22;100767.53;20959816;28;20094;-72
2021/11/22 08:21:26;;;;;;;26.08;11.35;;;;;;;5.20;98.51;100784.88;20922350;28;20424;-72
2021/11/22 08:31:29;;;;;;;23.60;9.88;;;;;;;5.27;97.05;100804.88;20946072;28;20067;-71
2021/11/22 08:41:32;;;;;;;25.58;10.68;;;;;;;5.32;97.14;100820.53;20931085;28;20041;-71
2021/11/22 08:51:35;;;;;;;27.98;10.27;;;;;;;5.36;97.39;100825.75;20906509;28;20391;-71
2021/11/22 09:01:37;;;;;;;23.63;10.25;;;;;;;5.39;96.02;100851.75;20904885;28;20103;-71
2021/11/22 09:11:39;;;;;;;27.58;10.73;;;;;;;5.52;96.74;100850.19;20922257;28;20401;-70
2021/11/22 09:21:41;;;;;;;19.55;8.82;;;;;;;5.50;95.93;100870.06;20987569;28;20094;-72
2021/11/22 09:31:43;;;;;;;24.67;9.98;;;;;;;5.64;95.66;100889.28;20985785;28;20102;-71
2021/11/22 09:41:49;;;;;;;22.73;10.05;;;;;;;5.68;93.58;100900.59;20982119;28;20068;-71
2021/11/22 09:51:51;;;;;;;20.23;8.00;;;;;;;5.66;93.73;100912.72;20980631;28;20056;-71
2021/11/22 10:01:55;;;;;;;19.48;7.90;;;;;;;5.67;92.89;100909.25;20983026;28;20045;-70
2021/11/22 10:12:10;;;;;;;19.17;8.05;;;;;;;5.69;92.54;100917.94;20982796;28;20055;-70
2021/11/22 10:22:19;;;;;;;17.57;9.00;;;;;;;5.68;92.75;100923.09;20981881;28;20499;-70
2021/11/22 10:32:32;;;;;;;20.50;8.35;;;;;;;5.64;92.01;100937.78;20980411;28;20372;-70
2021/11/22 10:42:39;;;;;;;17.92;8.00;;;;;;;5.95;90.75;100930.41;20979035;28;20117;-70
2021/11/22 10:52:41;;;;;;;17.17;5.80;;;;;;;6.51;86.88;100924.91;20977362;28;20051;-70
2021/11/22 11:02:44;;;;;;;9.75;4.60;;;;;;;6.99;82.77;100915.75;20975433;28;20094;-69
2021/11/22 11:12:46;;;;;;;11.85;4.03;;;;;;;7.28;78.25;100929.88;20977059;28;20056;-69
2021/11/22 11:22:50;;;;;;;9.57;3.65;;;;;;;7.16;75.92;100941.06;20977819;28;20045;-69
2021/11/22 11:32:53;;;;;;;5.65;2.60;;;;;;;7.51;75.74;100949.94;20976089;28;20045;-69
2021/11/22 11:43:11;;;;;;;7.97;2.70;;;;;;;7.45;74.20;100949.06;20976877;28;20459;-69
2021/11/22 11:53:16;;;;;;;6.60;2.90;;;;;;;7.48;75.61;100960.38;20976799;28;20444;-68
2021/11/22 12:03:17;;;;;;;6.75;3.15;;;;;;;7.43;76.29;100971.63;20975614;28;20044;-69
2021/11/22 12:13:19;;;;;;;9.02;3.53;;;;;;;7.50;76.44;100961.25;20954592;28;20053;-68
2021/11/22 12:23:25;;;;;;;6.68;3.25;;;;;;;7.23;76.72;100972.34;20909146;28;20491;-68
2021/11/22 12:33:26;;;;;;;6.72;2.78;;;;;;;7.10;75.65;100969.66;20907794;28;20488;-68
2021/11/22 12:43:44;;;;;;;4.85;2.70;;;;;;;7.59;74.68;100959.56;20906659;28;20090;-68
2021/11/22 12:54:04;;;;;;;5.50;2.75;;;;;;;7.16;75.37;100968.84;20905735;28;20448;-68
2021/11/22 13:04:05;;;;;;;4.97;2.40;;;;;;;7.19;73.59;100972.34;20904621;28;20045;-68
2021/11/22 13:14:09;;;;;;;8.05;3.38;;;;;;;7.58;72.15;100976.06;20940974;28;20460;-68
2021/11/22 13:24:14;;;;;;;6.90;2.40;;;;;;;7.73;70.76;100985.69;20984015;28;20055;-68
2021/11/22 13:34:23;;;;;;;8.05;2.50;;;;;;;7.91;71.16;100995.34;20984791;28;20071;-67
2021/11/22 13:44:32;;;;;;;6.47;2.35;;;;;;;7.50;72.59;101013.34;20985269;28;20566;-68
2021/11/22 13:54:33;;;;;;;;;;;;;;;7.35;73.16;101009.78;20984262;28;20053;-68
2021/11/22 14:04:41;;;;;;;3.58;1.75;;;;;;;7.18;73.19;101027.00;20983354;28;19966;-68
2021/11/22 14:14:45;;;;;;;4.18;2.10;;;;;;;7.16;73.13;101039.16;20958857;28;20052;-69
2021/11/22 14:24:54;;;;;;;5.17;1.80;;;;;;;6.99;73.38;101040.72;20913956;28;20045;-69
2021/11/22 14:35:17;;;;;;;3.35;1.40;;;;;;;6.93;73.36;101071.06;20930557;23;20204;-81
2021/11/22 14:45:19;;;;;;;2.60;1.40;;;;;;;6.89;72.29;101086.63;20906860;28;20051;-81
2021/11/22 14:55:21;;;;;;;5.55;1.63;;;;;;;6.93;72.08;101084.06;20887174;28;20045;-81
2021/11/22 15:05:32;;;;;;;4.40;1.85;;;;;;;6.87;71.95;101084.00;20886992;28;20519;-81
2021/11/22 15:15:34;;;;;;;5.78;2.38;;;;;;;6.81;71.38;101099.56;20886869;28;20127;-81
2021/11/22 15:25:35;;;;;;;11.45;4.88;;;;;;;6.85;71.50;101106.56;20887845;28;20474;-82
2021/11/22 15:35:37;;;;;;;4.05;1.83;;;;;;;6.84;70.03;101141.22;20911735;28;20065;-81
2021/11/22 15:45:39;;;;;;;5.20;1.85;;;;;;;6.76;70.37;101147.22;20971058;28;20045;-82
2021/11/22 15:55:40;;;;;;;7.63;2.72;;;;;;;6.70;70.85;101153.22;20934393;28;20124;-81
2021/11/22 16:05:42;;;;;;;7.15;3.10;;;;;;;6.67;72.62;101166.22;20880223;28;20099;-81
2021/11/22 16:15:43;;;;;;;8.52;2.90;;;;;;;6.56;74.89;101186.00;20880939;28;20045;-81
2021/11/22 16:25:46;;;;;;;7.82;3.90;;;;;;;6.42;76.61;101191.91;20896579;28;20045;-81
2021/11/22 16:35:47;;;;;;;5.55;2.90;;;;;;;6.43;77.09;101192.78;20929435;28;20041;-81
2021/11/22 16:45:51;;;;;;;6.93;2.33;;;;;;;6.39;75.80;101214.38;20892490;28;20075;-81
2021/11/22 16:55:53;;;;;;;6.72;4.07;;;;;;;6.42;74.27;101215.31;20915191;28;20053;-83
2021/11/22 17:05:54;;;;;;;3.78;1.73;;;;;;;6.42;73.27;101230.91;20927601;28;20040;-84
2021/11/22 17:15:56;;;;;;;4.50;2.25;;;;;;;6.43;72.47;101243.06;20900474;28;20045;-82
2021/11/22 17:25:57;;;;;;;3.90;1.48;;;;;;;6.37;72.29;101244.69;20918966;28;20056;-84
2021/11/22 17:35:59;;;;;;;4.20;1.23;;;;;;;6.32;71.62;101260.22;20908575;28;20060;-82
2021/11/22 17:46:05;;;;;;;3.38;1.50;;;;;;;6.30;71.22;101274.94;20926868;28;20045;-82
2021/11/22 17:56:09;;;;;;;4.00;1.50;;;;;;;6.28;71.27;101281.84;20922436;28;20045;-82
2021/11/22 18:06:15;;;;;;;2.97;1.20;;;;;;;6.29;70.58;101285.34;20921576;28;20501;-83
2021/11/22 18:16:38;;;;;;;2.58;1.10;;;;;;;6.32;70.35;101303.56;20918669;28;20049;-82
2021/11/22 18:26:41;;;;;;;3.78;1.27;;;;;;;6.20;70.44;101317.25;20921730;28;20501;-81
2021/11/22 18:36:43;;;;;;;4.15;1.50;;;;;;;6.14;70.27;101322.38;20914607;28;20065;-83
2021/11/22 18:46:46;;;;;;;2.95;1.23;;;;;;;6.09;70.22;101340.47;20912005;28;20128;-82
2021/11/22 18:56:47;;;;;;;6.18;1.80;;;;;;;6.05;70.29;101356.00;20923218;28;20041;-82
2021/11/22 19:06:50;;;;;;;5.25;2.30;;;;;;;6.01;70.32;101351.59;20912240;28;20103;-82
2021/11/22 19:16:52;;;;;;;5.07;1.80;;;;;;;5.76;71.35;101364.09;20904768;28;20041;-82
2021/11/22 19:26:53;;;;;;;7.53;2.00;;;;;;;5.62;72.17;101370.75;20905897;28;20494;-83
2021/11/22 19:36:55;;;;;;;5.18;1.92;;;;;;;5.46;71.53;101381.63;20918424;28;20037;-83
2021/11/22 19:46:57;;;;;;;4.28;2.05;;;;;;;5.31;72.57;101396.06;20917230;28;20543;-82
2021/11/22 19:56:59;;;;;;;5.63;1.70;;;;;;;4.98;73.09;101413.47;20906219;28;20460;-82
2021/11/22 20:07:00;;;;;;;4.05;1.73;;;;;;;4.53;73.81;101427.09;20913612;28;20119;-82
2021/11/22 20:17:17;;;;;;;4.43;2.00;;;;;;;4.27;74.08;101437.69;20899982;28;20049;-81
2021/11/22 20:27:40;;;;;;;5.43;2.38;;;;;;;4.05;74.85;101448.28;20899841;28;20045;-81
2021/11/22 20:37:42;;;;;;;8.38;2.97;;;;;;;3.88;75.49;101465.06;20913291;28;20045;-82
2021/11/22 20:47:45;;;;;;;10.05;3.90;;;;;;;3.70;76.06;101462.84;20855627;28;20053;-82
2021/11/22 20:57:48;;;;;;;10.25;4.60;;;;;;;3.62;76.66;101478.16;20829728;28;20052;-82
2021/11/22 21:07:50;;;;;;;10.18;4.55;;;;;;;3.24;78.17;101483.03;20845147;28;20045;-82
2021/11/22 21:17:51;;;;;;;8.38;3.30;;;;;;;3.10;79.16;101494.66;20825285;28;20073;-82
2021/11/22 21:27:54;;;;;;;9.10;2.97;;;;;;;2.88;79.60;101507.72;20826914;28;20471;-82
2021/11/22 21:37:56;;;;;;;7.65;3.20;;;;;;;2.69;80.21;101509.69;20863306;28;20056;-82
2021/11/22 21:47:58;;;;;;;7.45;2.97;;;;;;;2.35;82.23;101514.50;20910257;28;20051;-82
2021/11/22 21:58:00;;;;;;;6.88;3.08;;;;;;;2.23;82.13;101510.66;20920296;28;20045;-80
2021/11/22 22:08:02;;;;;;;8.32;3.70;;;;;;;2.05;82.71;101534.13;20914958;28;20040;-79
2021/11/22 22:18:04;;;;;;;8.02;3.83;;;;;;;1.97;83.26;101535.56;20828303;28;20480;-79
2021/11/22 22:28:05;;;;;;;7.80;4.18;;;;;;;1.93;83.15;101550.88;20851586;28;20457;-79
2021/11/22 22:38:07;;;;;;;7.65;3.90;;;;;;;1.79;84.30;101564.13;20848004;28;20045;-80
2021/11/22 22:48:08;;;;;;;8.10;4.63;;;;;;;1.67;84.10;101553.31;20885665;28;20048;-80
2021/11/22 22:58:10;;;;;;;14.13;4.60;;;;;;;1.59;84.95;101574.53;20918256;28;20094;-81
2021/11/22 23:08:12;;;;;;;13.15;4.90;;;;;;;1.36;85.36;101576.19;20931680;28;20041;-79
2021/11/22 23:18:17;;;;;;;11.52;6.03;;;;;;;1.25;86.14;101579.22;20918858;28;20049;-79
2021/11/22 23:28:21;;;;;;;11.15;6.03;;;;;;;1.05;87.04;101600.69;20910607;28;20083;-79
2021/11/22 23:38:23;;;;;;;11.60;5.80;;;;;;;0.90;87.59;101594.91;20928867;28;20071;-79
2021/11/22 23:48:25;;;;;;;11.00;5.30;;;;;;;0.82;88.01;101607.47;20927499;28;20049;-79
2021/11/22 23:58:26;;;;;;;11.27;5.40;;;;;;;0.72;88.53;101615.63;20918456;28;20091;-80
